sensor_id;sensor_type;location;lat;lon;timestamp;P1;durP1;ratioP1;P2;durP2;ratioP2
50549;SDS011;36505;52.512;13.460;2023-07-20T00:00:45;3.70;;;2.20;;
50549;SDS011;36505;52.512;13.460;2023-07-20T00:03:11;5.60;;;2.60;;
50549;SDS011;36505;52.512;13.460;2023-07-20T00:05:41;6.82;;;2.78;;
50549;SDS011;36505;52.512;13.460;2023-07-20T00:08:10;3.70;;;2.13;;
50549;SDS011;36505;52.512;13.460;2023-07-20T00:10:35;3.72;;;2.22;;
50549;SDS011;36505;52.512;13.460;2023-07-20T00:13:01;4.40;;;2.45;;
50549;SDS011;36505;52.512;13.460;2023-07-20T00:15:26;6.20;;;2.90;;
50549;SDS011;36505;52.512;13.460;2023-07-20T00:17:51;5.82;;;2.80;;
50549;SDS011;36505;52.512;13.460;2023-07-20T00:20:17;3.85;;;2.50;;
50549;SDS011;36505;52.512;13.460;2023-07-20T00:22:42;4.38;;;2.67;;
50549;SDS011;36505;52.512;13.460;2023-07-20T00:25:08;6.07;;;3.28;;
50549;SDS011;36505;52.512;13.460;2023-07-20T00:27:35;6.22;;;2.67;;
50549;SDS011;36505;52.512;13.460;2023-07-20T00:30:00;6.13;;;2.85;;
50549;SDS011;36505;52.512;13.460;2023-07-20T00:32:25;5.30;;;2.70;;
50549;SDS011;36505;52.512;13.460;2023-07-20T00:34:51;4.40;;;2.88;;
50549;SDS011;36505;52.512;13.460;2023-07-20T00:37:16;4.70;;;2.40;;
50549;SDS011;36505;52.512;13.460;2023-07-20T00:39:41;4.72;;;2.70;;
50549;SDS011;36505;52.512;13.460;2023-07-20T00:42:07;6.10;;;3.28;;
50549;SDS011;36505;52.512;13.460;2023-07-20T00:44:32;5.15;;;2.70;;
50549;SDS011;36505;52.512;13.460;2023-07-20T00:46:58;6.05;;;2.95;;
50549;SDS011;36505;52.512;13.460;2023-07-20T00:49:23;4.15;;;2.58;;
50549;SDS011;36505;52.512;13.460;2023-07-20T00:51:49;3.90;;;2.30;;
50549;SDS011;36505;52.512;13.460;2023-07-20T00:54:15;5.00;;;2.70;;
50549;SDS011;36505;52.512;13.460;2023-07-20T00:56:41;4.38;;;2.70;;
50549;SDS011;36505;52.512;13.460;2023-07-20T00:59:07;4.30;;;2.40;;
50549;SDS011;36505;52.512;13.460;2023-07-20T01:01:32;6.47;;;2.88;;
50549;SDS011;36505;52.512;13.460;2023-07-20T01:03:58;3.22;;;2.40;;
50549;SDS011;36505;52.512;13.460;2023-07-20T01:14:47;5.43;;;2.40;;
50549;SDS011;36505;52.512;13.460;2023-07-20T01:17:13;4.68;;;2.40;;
50549;SDS011;36505;52.512;13.460;2023-07-20T01:19:39;6.15;;;2.88;;
50549;SDS011;36505;52.512;13.460;2023-07-20T01:27:26;5.82;;;3.00;;
50549;SDS011;36505;52.512;13.460;2023-07-20T01:30:03;7.30;;;3.03;;
50549;SDS011;36505;52.512;13.460;2023-07-20T01:32:40;6.32;;;3.05;;
50549;SDS011;36505;52.512;13.460;2023-07-20T01:35:07;5.75;;;2.75;;
50549;SDS011;36505;52.512;13.460;2023-07-20T01:37:35;4.75;;;2.80;;
50549;SDS011;36505;52.512;13.460;2023-07-20T01:40:02;6.05;;;3.70;;
50549;SDS011;36505;52.512;13.460;2023-07-20T01:42:28;8.30;;;2.70;;
50549;SDS011;36505;52.512;13.460;2023-07-20T01:44:54;5.85;;;2.88;;
50549;SDS011;36505;52.512;13.460;2023-07-20T01:47:19;6.10;;;2.85;;
50549;SDS011;36505;52.512;13.460;2023-07-20T01:49:45;4.32;;;2.65;;
50549;SDS011;36505;52.512;13.460;2023-07-20T01:52:10;5.43;;;3.30;;
50549;SDS011;36505;52.512;13.460;2023-07-20T01:54:35;5.47;;;2.90;;
50549;SDS011;36505;52.512;13.460;2023-07-20T01:57:01;6.13;;;3.35;;
50549;SDS011;36505;52.512;13.460;2023-07-20T01:59:26;3.45;;;2.58;;
50549;SDS011;36505;52.512;13.460;2023-07-20T02:01:52;6.55;;;3.45;;
50549;SDS011;36505;52.512;13.460;2023-07-20T02:04:17;5.43;;;3.30;;
50549;SDS011;36505;52.512;13.460;2023-07-20T02:06:43;4.88;;;2.78;;
50549;SDS011;36505;52.512;13.460;2023-07-20T02:09:08;4.43;;;2.92;;
50549;SDS011;36505;52.512;13.460;2023-07-20T02:11:33;4.93;;;3.10;;
50549;SDS011;36505;52.512;13.460;2023-07-20T02:13:59;6.03;;;3.05;;
50549;SDS011;36505;52.512;13.460;2023-07-20T02:16:24;4.20;;;2.70;;
50549;SDS011;36505;52.512;13.460;2023-07-20T02:18:50;4.85;;;2.80;;
50549;SDS011;36505;52.512;13.460;2023-07-20T02:21:15;6.10;;;3.00;;
50549;SDS011;36505;52.512;13.460;2023-07-20T02:23:40;5.20;;;2.92;;
50549;SDS011;36505;52.512;13.460;2023-07-20T02:26:06;12.55;;;3.25;;
50549;SDS011;36505;52.512;13.460;2023-07-20T02:28:31;6.15;;;3.30;;
50549;SDS011;36505;52.512;13.460;2023-07-20T02:30:57;6.43;;;2.85;;
50549;SDS011;36505;52.512;13.460;2023-07-20T02:33:22;4.13;;;2.85;;
50549;SDS011;36505;52.512;13.460;2023-07-20T02:35:47;4.85;;;3.05;;
50549;SDS011;36505;52.512;13.460;2023-07-20T02:38:13;5.50;;;2.90;;
50549;SDS011;36505;52.512;13.460;2023-07-20T02:40:38;5.97;;;3.78;;
50549;SDS011;36505;52.512;13.460;2023-07-20T02:43:04;6.88;;;3.80;;
50549;SDS011;36505;52.512;13.460;2023-07-20T02:45:29;6.65;;;4.00;;
50549;SDS011;36505;52.512;13.460;2023-07-20T02:47:55;3.95;;;3.50;;
50549;SDS011;36505;52.512;13.460;2023-07-20T02:50:20;10.00;;;3.83;;
50549;SDS011;36505;52.512;13.460;2023-07-20T02:52:45;8.52;;;4.57;;
50549;SDS011;36505;52.512;13.460;2023-07-20T02:55:11;8.38;;;4.30;;
50549;SDS011;36505;52.512;13.460;2023-07-20T02:57:36;7.47;;;4.90;;
50549;SDS011;36505;52.512;13.460;2023-07-20T03:00:02;7.90;;;5.47;;
50549;SDS011;36505;52.512;13.460;2023-07-20T03:02:31;8.13;;;5.60;;
50549;SDS011;36505;52.512;13.460;2023-07-20T03:04:57;6.82;;;5.22;;
50549;SDS011;36505;52.512;13.460;2023-07-20T03:07:26;8.77;;;5.50;;
50549;SDS011;36505;52.512;13.460;2023-07-20T03:09:53;7.57;;;5.50;;
50549;SDS011;36505;52.512;13.460;2023-07-20T03:12:20;7.57;;;5.22;;
50549;SDS011;36505;52.512;13.460;2023-07-20T03:14:45;7.90;;;5.03;;
50549;SDS011;36505;52.512;13.460;2023-07-20T03:17:10;9.13;;;5.68;;
50549;SDS011;36505;52.512;13.460;2023-07-20T03:19:36;6.50;;;5.20;;
50549;SDS011;36505;52.512;13.460;2023-07-20T03:22:01;6.80;;;5.13;;
50549;SDS011;36505;52.512;13.460;2023-07-20T03:24:27;7.35;;;5.47;;
50549;SDS011;36505;52.512;13.460;2023-07-20T03:26:52;7.07;;;5.22;;
50549;SDS011;36505;52.512;13.460;2023-07-20T03:29:18;7.65;;;5.75;;
50549;SDS011;36505;52.512;13.460;2023-07-20T03:31:43;7.40;;;5.70;;
50549;SDS011;36505;52.512;13.460;2023-07-20T03:34:09;6.32;;;4.60;;
50549;SDS011;36505;52.512;13.460;2023-07-20T03:36:34;7.45;;;5.13;;
50549;SDS011;36505;52.512;13.460;2023-07-20T03:38:59;10.20;;;6.00;;
50549;SDS011;36505;52.512;13.460;2023-07-20T03:41:25;8.52;;;5.72;;
50549;SDS011;36505;52.512;13.460;2023-07-20T03:43:50;8.32;;;6.05;;
50549;SDS011;36505;52.512;13.460;2023-07-20T03:46:15;8.82;;;5.95;;
50549;SDS011;36505;52.512;13.460;2023-07-20T03:48:41;9.32;;;6.05;;
50549;SDS011;36505;52.512;13.460;2023-07-20T03:51:06;9.77;;;6.30;;
50549;SDS011;36505;52.512;13.460;2023-07-20T03:53:31;8.27;;;5.57;;
50549;SDS011;36505;52.512;13.460;2023-07-20T03:55:57;9.07;;;5.97;;
50549;SDS011;36505;52.512;13.460;2023-07-20T03:58:23;10.48;;;6.55;;
50549;SDS011;36505;52.512;13.460;2023-07-20T04:00:49;14.15;;;5.90;;
50549;SDS011;36505;52.512;13.460;2023-07-20T04:03:16;12.30;;;5.95;;
50549;SDS011;36505;52.512;13.460;2023-07-20T04:05:43;8.05;;;6.07;;
50549;SDS011;36505;52.512;13.460;2023-07-20T04:08:09;9.63;;;5.47;;
50549;SDS011;36505;52.512;13.460;2023-07-20T04:10:36;8.23;;;5.30;;
50549;SDS011;36505;52.512;13.460;2023-07-20T04:13:01;7.07;;;5.30;;
50549;SDS011;36505;52.512;13.460;2023-07-20T04:15:27;9.68;;;5.40;;
50549;SDS011;36505;52.512;13.460;2023-07-20T04:17:52;7.78;;;5.57;;
50549;SDS011;36505;52.512;13.460;2023-07-20T04:20:17;9.57;;;5.03;;
50549;SDS011;36505;52.512;13.460;2023-07-20T04:22:43;6.57;;;5.15;;
50549;SDS011;36505;52.512;13.460;2023-07-20T04:25:08;5.70;;;4.53;;
50549;SDS011;36505;52.512;13.460;2023-07-20T04:27:35;9.25;;;4.68;;
50549;SDS011;36505;52.512;13.460;2023-07-20T04:30:01;7.70;;;5.00;;
50549;SDS011;36505;52.512;13.460;2023-07-20T04:32:27;7.75;;;5.68;;
50549;SDS011;36505;52.512;13.460;2023-07-20T04:34:52;6.38;;;4.45;;
50549;SDS011;36505;52.512;13.460;2023-07-20T04:37:18;9.65;;;5.63;;
50549;SDS011;36505;52.512;13.460;2023-07-20T04:39:43;9.77;;;5.43;;
50549;SDS011;36505;52.512;13.460;2023-07-20T04:42:09;7.55;;;5.72;;
50549;SDS011;36505;52.512;13.460;2023-07-20T04:44:34;8.32;;;5.22;;
50549;SDS011;36505;52.512;13.460;2023-07-20T04:46:59;11.60;;;5.55;;
50549;SDS011;36505;52.512;13.460;2023-07-20T04:49:25;7.45;;;4.60;;
50549;SDS011;36505;52.512;13.460;2023-07-20T04:51:51;6.30;;;4.90;;
50549;SDS011;36505;52.512;13.460;2023-07-20T04:54:16;7.82;;;5.03;;
50549;SDS011;36505;52.512;13.460;2023-07-20T04:56:43;7.22;;;5.00;;
50549;SDS011;36505;52.512;13.460;2023-07-20T04:59:09;8.73;;;5.68;;
50549;SDS011;36505;52.512;13.460;2023-07-20T05:01:34;10.27;;;5.03;;
50549;SDS011;36505;52.512;13.460;2023-07-20T05:03:59;7.75;;;4.90;;
50549;SDS011;36505;52.512;13.460;2023-07-20T05:06:25;8.10;;;4.93;;
50549;SDS011;36505;52.512;13.460;2023-07-20T05:08:51;8.15;;;4.70;;
50549;SDS011;36505;52.512;13.460;2023-07-20T05:11:16;8.38;;;5.63;;
50549;SDS011;36505;52.512;13.460;2023-07-20T05:13:41;6.70;;;4.63;;
50549;SDS011;36505;52.512;13.460;2023-07-20T05:16:07;7.78;;;5.03;;
50549;SDS011;36505;52.512;13.460;2023-07-20T05:18:33;8.13;;;5.35;;
50549;SDS011;36505;52.512;13.460;2023-07-20T05:20:58;6.45;;;4.75;;
50549;SDS011;36505;52.512;13.460;2023-07-20T05:23:24;7.43;;;4.22;;
50549;SDS011;36505;52.512;13.460;2023-07-20T05:25:55;6.78;;;4.43;;
50549;SDS011;36505;52.512;13.460;2023-07-20T05:28:22;7.03;;;3.47;;
50549;SDS011;36505;52.512;13.460;2023-07-20T05:30:47;7.28;;;4.63;;
50549;SDS011;36505;52.512;13.460;2023-07-20T05:33:13;5.65;;;3.95;;
50549;SDS011;36505;52.512;13.460;2023-07-20T05:35:38;5.32;;;3.80;;
50549;SDS011;36505;52.512;13.460;2023-07-20T05:38:04;7.40;;;4.20;;
50549;SDS011;36505;52.512;13.460;2023-07-20T05:40:31;6.13;;;3.63;;
50549;SDS011;36505;52.512;13.460;2023-07-20T05:42:57;11.32;;;6.20;;
50549;SDS011;36505;52.512;13.460;2023-07-20T05:45:22;6.63;;;3.80;;
50549;SDS011;36505;52.512;13.460;2023-07-20T05:47:48;7.75;;;4.20;;
50549;SDS011;36505;52.512;13.460;2023-07-20T05:50:13;5.60;;;3.35;;
50549;SDS011;36505;52.512;13.460;2023-07-20T05:52:39;6.78;;;4.15;;
50549;SDS011;36505;52.512;13.460;2023-07-20T05:55:05;8.27;;;3.60;;
50549;SDS011;36505;52.512;13.460;2023-07-20T05:57:32;8.57;;;3.40;;
50549;SDS011;36505;52.512;13.460;2023-07-20T05:59:57;8.43;;;3.30;;
50549;SDS011;36505;52.512;13.460;2023-07-20T06:02:23;7.82;;;3.50;;
50549;SDS011;36505;52.512;13.460;2023-07-20T06:04:48;3.90;;;2.95;;
50549;SDS011;36505;52.512;13.460;2023-07-20T06:07:14;4.85;;;3.15;;
50549;SDS011;36505;52.512;13.460;2023-07-20T06:09:40;6.90;;;3.35;;
50549;SDS011;36505;52.512;13.460;2023-07-20T06:12:05;5.78;;;3.10;;
50549;SDS011;36505;52.512;13.460;2023-07-20T06:14:31;5.00;;;3.10;;
50549;SDS011;36505;52.512;13.460;2023-07-20T06:16:57;12.75;;;4.13;;
50549;SDS011;36505;52.512;13.460;2023-07-20T06:19:22;9.85;;;4.00;;
50549;SDS011;36505;52.512;13.460;2023-07-20T06:21:47;5.45;;;3.95;;
50549;SDS011;36505;52.512;13.460;2023-07-20T06:24:14;6.15;;;3.75;;
50549;SDS011;36505;52.512;13.460;2023-07-20T06:26:40;7.00;;;3.63;;
50549;SDS011;36505;52.512;13.460;2023-07-20T06:29:05;7.45;;;3.47;;
50549;SDS011;36505;52.512;13.460;2023-07-20T06:31:31;4.95;;;3.28;;
50549;SDS011;36505;52.512;13.460;2023-07-20T06:33:57;5.70;;;3.35;;
50549;SDS011;36505;52.512;13.460;2023-07-20T06:36:23;6.25;;;3.35;;
50549;SDS011;36505;52.512;13.460;2023-07-20T06:38:48;6.88;;;3.20;;
50549;SDS011;36505;52.512;13.460;2023-07-20T06:41:14;7.05;;;3.30;;
50549;SDS011;36505;52.512;13.460;2023-07-20T06:43:39;8.65;;;3.17;;
50549;SDS011;36505;52.512;13.460;2023-07-20T06:46:04;2.63;;;2.00;;
50549;SDS011;36505;52.512;13.460;2023-07-20T06:48:30;4.30;;;2.20;;
50549;SDS011;36505;52.512;13.460;2023-07-20T06:50:55;5.75;;;2.75;;
50549;SDS011;36505;52.512;13.460;2023-07-20T06:53:20;3.35;;;2.15;;
50549;SDS011;36505;52.512;13.460;2023-07-20T06:55:46;6.63;;;2.63;;
50549;SDS011;36505;52.512;13.460;2023-07-20T06:58:11;2.90;;;1.98;;
50549;SDS011;36505;52.512;13.460;2023-07-20T07:00:36;5.35;;;2.03;;
50549;SDS011;36505;52.512;13.460;2023-07-20T07:03:02;6.43;;;2.22;;
50549;SDS011;36505;52.512;13.460;2023-07-20T07:05:27;3.38;;;2.15;;
50549;SDS011;36505;52.512;13.460;2023-07-20T07:07:53;9.27;;;1.67;;
50549;SDS011;36505;52.512;13.460;2023-07-20T07:10:18;2.10;;;1.30;;
50549;SDS011;36505;52.512;13.460;2023-07-20T07:12:43;7.55;;;1.90;;
50549;SDS011;36505;52.512;13.460;2023-07-20T07:15:09;3.38;;;1.50;;
50549;SDS011;36505;52.512;13.460;2023-07-20T07:17:35;7.22;;;2.00;;
50549;SDS011;36505;52.512;13.460;2023-07-20T07:20:01;5.32;;;1.77;;
50549;SDS011;36505;52.512;13.460;2023-07-20T07:22:26;4.07;;;1.95;;
50549;SDS011;36505;52.512;13.460;2023-07-20T07:24:52;4.00;;;1.38;;
50549;SDS011;36505;52.512;13.460;2023-07-20T07:27:17;2.50;;;1.17;;
50549;SDS011;36505;52.512;13.460;2023-07-20T07:29:43;5.18;;;1.67;;
50549;SDS011;36505;52.512;13.460;2023-07-20T07:32:09;1.40;;;0.80;;
50549;SDS011;36505;52.512;13.460;2023-07-20T07:34:36;1.67;;;0.70;;
50549;SDS011;36505;52.512;13.460;2023-07-20T07:37:02;3.17;;;1.23;;
50549;SDS011;36505;52.512;13.460;2023-07-20T07:39:28;5.60;;;1.20;;
50549;SDS011;36505;52.512;13.460;2023-07-20T07:41:54;1.80;;;0.77;;
50549;SDS011;36505;52.512;13.460;2023-07-20T07:44:20;2.78;;;0.65;;
50549;SDS011;36505;52.512;13.460;2023-07-20T07:46:46;4.55;;;0.90;;
50549;SDS011;36505;52.512;13.460;2023-07-20T07:49:11;12.38;;;1.27;;
50549;SDS011;36505;52.512;13.460;2023-07-20T07:51:37;3.65;;;0.60;;
50549;SDS011;36505;52.512;13.460;2023-07-20T07:54:02;0.85;;;0.55;;
50549;SDS011;36505;52.512;13.460;2023-07-20T07:56:27;1.00;;;0.60;;
50549;SDS011;36505;52.512;13.460;2023-07-20T07:58:53;2.00;;;1.05;;
50549;SDS011;36505;52.512;13.460;2023-07-20T08:01:18;1.67;;;0.50;;
50549;SDS011;36505;52.512;13.460;2023-07-20T08:03:44;1.48;;;1.00;;
50549;SDS011;36505;52.512;13.460;2023-07-20T08:06:12;2.33;;;0.85;;
50549;SDS011;36505;52.512;13.460;2023-07-20T08:08:40;1.30;;;0.60;;
50549;SDS011;36505;52.512;13.460;2023-07-20T08:11:07;1.70;;;0.50;;
50549;SDS011;36505;52.512;13.460;2023-07-20T08:13:33;1.98;;;1.10;;
50549;SDS011;36505;52.512;13.460;2023-07-20T08:15:59;2.22;;;0.93;;
50549;SDS011;36505;52.512;13.460;2023-07-20T08:18:24;2.53;;;1.27;;
50549;SDS011;36505;52.512;13.460;2023-07-20T08:20:50;4.80;;;1.38;;
50549;SDS011;36505;52.512;13.460;2023-07-20T08:23:15;1.52;;;0.80;;
50549;SDS011;36505;52.512;13.460;2023-07-20T08:25:41;0.68;;;0.50;;
50549;SDS011;36505;52.512;13.460;2023-07-20T08:28:13;2.38;;;0.63;;
50549;SDS011;36505;52.512;13.460;2023-07-20T08:30:40;0.75;;;0.50;;
50549;SDS011;36505;52.512;13.460;2023-07-20T08:33:07;1.52;;;0.60;;
50549;SDS011;36505;52.512;13.460;2023-07-20T08:35:33;1.38;;;0.70;;
50549;SDS011;36505;52.512;13.460;2023-07-20T08:37:58;2.40;;;0.68;;
50549;SDS011;36505;52.512;13.460;2023-07-20T08:40:24;2.38;;;0.80;;
50549;SDS011;36505;52.512;13.460;2023-07-20T08:42:49;0.55;;;0.40;;
50549;SDS011;36505;52.512;13.460;2023-07-20T08:45:15;0.50;;;0.40;;
50549;SDS011;36505;52.512;13.460;2023-07-20T08:47:42;1.35;;;0.70;;
50549;SDS011;36505;52.512;13.460;2023-07-20T08:50:10;0.77;;;0.40;;
50549;SDS011;36505;52.512;13.460;2023-07-20T08:52:37;4.82;;;0.93;;
50549;SDS011;36505;52.512;13.460;2023-07-20T08:55:03;1.40;;;0.65;;
50549;SDS011;36505;52.512;13.460;2023-07-20T08:57:29;0.75;;;0.40;;
50549;SDS011;36505;52.512;13.460;2023-07-20T08:59:57;1.80;;;0.47;;
50549;SDS011;36505;52.512;13.460;2023-07-20T09:02:25;3.78;;;0.73;;
50549;SDS011;36505;52.512;13.460;2023-07-20T09:04:52;0.75;;;0.40;;
50549;SDS011;36505;52.512;13.460;2023-07-20T09:07:17;2.13;;;0.68;;
50549;SDS011;36505;52.512;13.460;2023-07-20T09:09:45;1.48;;;0.50;;
50549;SDS011;36505;52.512;13.460;2023-07-20T09:12:13;5.28;;;0.63;;
50549;SDS011;36505;52.512;13.460;2023-07-20T09:14:42;0.50;;;0.40;;
50549;SDS011;36505;52.512;13.460;2023-07-20T09:17:08;2.55;;;0.50;;
50549;SDS011;36505;52.512;13.460;2023-07-20T09:19:38;0.93;;;0.50;;
50549;SDS011;36505;52.512;13.460;2023-07-20T09:22:03;0.80;;;0.50;;
50549;SDS011;36505;52.512;13.460;2023-07-20T09:24:31;5.30;;;0.55;;
50549;SDS011;36505;52.512;13.460;2023-07-20T09:26:57;3.13;;;0.68;;
50549;SDS011;36505;52.512;13.460;2023-07-20T09:29:26;1.05;;;0.63;;
50549;SDS011;36505;52.512;13.460;2023-07-20T09:32:02;0.68;;;0.47;;
50549;SDS011;36505;52.512;13.460;2023-07-20T09:34:28;1.05;;;0.47;;
50549;SDS011;36505;52.512;13.460;2023-07-20T09:36:56;2.90;;;0.45;;
50549;SDS011;36505;52.512;13.460;2023-07-20T09:39:22;1.73;;;0.50;;
50549;SDS011;36505;52.512;13.460;2023-07-20T09:41:48;1.20;;;0.43;;
50549;SDS011;36505;52.512;13.460;2023-07-20T09:44:14;2.63;;;1.42;;
50549;SDS011;36505;52.512;13.460;2023-07-20T09:46:46;3.03;;;0.60;;
50549;SDS011;36505;52.512;13.460;2023-07-20T09:49:13;2.38;;;0.65;;
50549;SDS011;36505;52.512;13.460;2023-07-20T09:51:39;1.92;;;0.50;;
50549;SDS011;36505;52.512;13.460;2023-07-20T09:54:07;0.30;;;0.30;;
50549;SDS011;36505;52.512;13.460;2023-07-20T09:56:32;1.35;;;0.57;;
50549;SDS011;36505;52.512;13.460;2023-07-20T09:58:58;2.53;;;0.43;;
50549;SDS011;36505;52.512;13.460;2023-07-20T10:01:24;0.75;;;0.55;;
50549;SDS011;36505;52.512;13.460;2023-07-20T10:03:53;4.00;;;0.70;;
50549;SDS011;36505;52.512;13.460;2023-07-20T10:06:23;1.27;;;0.60;;
50549;SDS011;36505;52.512;13.460;2023-07-20T10:08:52;2.03;;;0.55;;
50549;SDS011;36505;52.512;13.460;2023-07-20T10:11:21;4.32;;;0.90;;
50549;SDS011;36505;52.512;13.460;2023-07-20T10:13:47;1.40;;;0.63;;
50549;SDS011;36505;52.512;13.460;2023-07-20T10:16:22;1.25;;;0.60;;
50549;SDS011;36505;52.512;13.460;2023-07-20T10:19:05;2.72;;;0.60;;
50549;SDS011;36505;52.512;13.460;2023-07-20T10:21:33;1.27;;;0.70;;
50549;SDS011;36505;52.512;13.460;2023-07-20T10:24:02;2.70;;;0.80;;
50549;SDS011;36505;52.512;13.460;2023-07-20T10:26:29;12.38;;;1.08;;
50549;SDS011;36505;52.512;13.460;2023-07-20T10:28:54;1.05;;;0.70;;
50549;SDS011;36505;52.512;13.460;2023-07-20T10:31:21;4.05;;;0.93;;
50549;SDS011;36505;52.512;13.460;2023-07-20T10:33:48;2.83;;;1.00;;
50549;SDS011;36505;52.512;13.460;2023-07-20T10:36:15;1.88;;;0.80;;
50549;SDS011;36505;52.512;13.460;2023-07-20T10:41:19;2.05;;;0.88;;
50549;SDS011;36505;52.512;13.460;2023-07-20T10:43:45;1.42;;;0.90;;
50549;SDS011;36505;52.512;13.460;2023-07-20T10:46:11;1.05;;;0.85;;
50549;SDS011;36505;52.512;13.460;2023-07-20T10:48:58;2.72;;;0.90;;
50549;SDS011;36505;52.512;13.460;2023-07-20T10:51:26;3.15;;;0.95;;
50549;SDS011;36505;52.512;13.460;2023-07-20T10:53:51;3.90;;;1.10;;
50549;SDS011;36505;52.512;13.460;2023-07-20T10:56:21;3.38;;;0.90;;
50549;SDS011;36505;52.512;13.460;2023-07-20T10:58:48;2.67;;;0.98;;
50549;SDS011;36505;52.512;13.460;2023-07-20T11:01:14;4.50;;;1.00;;
50549;SDS011;36505;52.512;13.460;2023-07-20T11:03:42;2.13;;;0.95;;
50549;SDS011;36505;52.512;13.460;2023-07-20T11:08:49;3.13;;;1.02;;
50549;SDS011;36505;52.512;13.460;2023-07-20T11:11:24;2.05;;;1.27;;
50549;SDS011;36505;52.512;13.460;2023-07-20T11:13:57;1.48;;;0.95;;
50549;SDS011;36505;52.512;13.460;2023-07-20T11:19:02;1.52;;;0.90;;
50549;SDS011;36505;52.512;13.460;2023-07-20T11:21:29;3.08;;;1.00;;
50549;SDS011;36505;52.512;13.460;2023-07-20T11:24:02;1.90;;;0.75;;
50549;SDS011;36505;52.512;13.460;2023-07-20T11:26:28;3.47;;;1.00;;
50549;SDS011;36505;52.512;13.460;2023-07-20T11:28:54;2.67;;;0.90;;
50549;SDS011;36505;52.512;13.460;2023-07-20T11:31:19;1.65;;;0.88;;
50549;SDS011;36505;52.512;13.460;2023-07-20T11:33:45;2.72;;;0.80;;
50549;SDS011;36505;52.512;13.460;2023-07-20T11:36:12;6.97;;;1.20;;
50549;SDS011;36505;52.512;13.460;2023-07-20T11:38:40;2.05;;;0.80;;
50549;SDS011;36505;52.512;13.460;2023-07-20T11:41:07;1.58;;;0.90;;
50549;SDS011;36505;52.512;13.460;2023-07-20T11:43:33;2.38;;;1.15;;
50549;SDS011;36505;52.512;13.460;2023-07-20T11:45:59;2.65;;;1.20;;
50549;SDS011;36505;52.512;13.460;2023-07-20T11:48:24;2.80;;;1.33;;
50549;SDS011;36505;52.512;13.460;2023-07-20T11:50:49;5.07;;;1.20;;
50549;SDS011;36505;52.512;13.460;2023-07-20T11:53:15;2.25;;;0.70;;
50549;SDS011;36505;52.512;13.460;2023-07-20T11:55:41;2.28;;;0.60;;
50549;SDS011;36505;52.512;13.460;2023-07-20T11:58:07;1.73;;;0.52;;
50549;SDS011;36505;52.512;13.460;2023-07-20T12:00:33;2.35;;;0.73;;
50549;SDS011;36505;52.512;13.460;2023-07-20T12:03:00;2.22;;;0.75;;
50549;SDS011;36505;52.512;13.460;2023-07-20T12:05:26;1.67;;;0.70;;
50549;SDS011;36505;52.512;13.460;2023-07-20T12:07:51;2.38;;;0.75;;
50549;SDS011;36505;52.512;13.460;2023-07-20T12:10:23;4.97;;;1.00;;
50549;SDS011;36505;52.512;13.460;2023-07-20T12:12:50;4.20;;;0.95;;
50549;SDS011;36505;52.512;13.460;2023-07-20T12:15:16;1.13;;;0.73;;
50549;SDS011;36505;52.512;13.460;2023-07-20T12:17:45;4.03;;;0.60;;
50549;SDS011;36505;52.512;13.460;2023-07-20T12:20:11;2.35;;;0.85;;
50549;SDS011;36505;52.512;13.460;2023-07-20T12:22:40;5.40;;;0.90;;
50549;SDS011;36505;52.512;13.460;2023-07-20T12:25:08;0.55;;;0.40;;
50549;SDS011;36505;52.512;13.460;2023-07-20T12:27:37;4.28;;;1.08;;
50549;SDS011;36505;52.512;13.460;2023-07-20T12:30:03;1.85;;;1.15;;
50549;SDS011;36505;52.512;13.460;2023-07-20T12:32:32;1.00;;;0.70;;
50549;SDS011;36505;52.512;13.460;2023-07-20T12:34:58;4.22;;;0.70;;
50549;SDS011;36505;52.512;13.460;2023-07-20T12:37:25;1.77;;;0.82;;
50549;SDS011;36505;52.512;13.460;2023-07-20T12:39:51;3.03;;;0.73;;
50549;SDS011;36505;52.512;13.460;2023-07-20T12:42:17;5.57;;;1.35;;
50549;SDS011;36505;52.512;13.460;2023-07-20T12:44:42;5.35;;;0.80;;
50549;SDS011;36505;52.512;13.460;2023-07-20T12:47:07;3.15;;;1.08;;
50549;SDS011;36505;52.512;13.460;2023-07-20T12:49:33;3.33;;;1.50;;
50549;SDS011;36505;52.512;13.460;2023-07-20T12:51:58;1.95;;;0.70;;
50549;SDS011;36505;52.512;13.460;2023-07-20T12:54:23;1.40;;;0.77;;
50549;SDS011;36505;52.512;13.460;2023-07-20T12:56:49;2.28;;;0.82;;
50549;SDS011;36505;52.512;13.460;2023-07-20T12:59:14;6.20;;;1.45;;
50549;SDS011;36505;52.512;13.460;2023-07-20T13:01:40;5.20;;;0.93;;
50549;SDS011;36505;52.512;13.460;2023-07-20T13:04:06;3.45;;;0.75;;
50549;SDS011;36505;52.512;13.460;2023-07-20T13:06:34;1.50;;;0.60;;
50549;SDS011;36505;52.512;13.460;2023-07-20T13:09:00;2.75;;;0.70;;
50549;SDS011;36505;52.512;13.460;2023-07-20T13:11:25;3.78;;;0.90;;
50549;SDS011;36505;52.512;13.460;2023-07-20T13:13:51;1.85;;;0.77;;
50549;SDS011;36505;52.512;13.460;2023-07-20T13:16:16;0.47;;;0.38;;
50549;SDS011;36505;52.512;13.460;2023-07-20T13:18:42;1.30;;;0.68;;
50549;SDS011;36505;52.512;13.460;2023-07-20T13:21:07;1.77;;;0.73;;
50549;SDS011;36505;52.512;13.460;2023-07-20T13:23:36;3.13;;;0.52;;
50549;SDS011;36505;52.512;13.460;2023-07-20T13:26:02;2.40;;;0.57;;
50549;SDS011;36505;52.512;13.460;2023-07-20T13:28:28;1.15;;;0.55;;
50549;SDS011;36505;52.512;13.460;2023-07-20T13:30:53;5.38;;;0.75;;
50549;SDS011;36505;52.512;13.460;2023-07-20T13:33:18;3.15;;;0.90;;
50549;SDS011;36505;52.512;13.460;2023-07-20T13:35:44;1.17;;;0.70;;
50549;SDS011;36505;52.512;13.460;2023-07-20T13:38:09;2.90;;;0.65;;
50549;SDS011;36505;52.512;13.460;2023-07-20T13:40:35;1.65;;;0.50;;
50549;SDS011;36505;52.512;13.460;2023-07-20T13:43:01;0.82;;;0.55;;
50549;SDS011;36505;52.512;13.460;2023-07-20T13:45:27;2.70;;;0.47;;
50549;SDS011;36505;52.512;13.460;2023-07-20T13:47:52;1.08;;;0.80;;
50549;SDS011;36505;52.512;13.460;2023-07-20T13:50:17;1.17;;;0.60;;
50549;SDS011;36505;52.512;13.460;2023-07-20T13:52:43;2.03;;;0.90;;
50549;SDS011;36505;52.512;13.460;2023-07-20T13:55:08;4.18;;;1.02;;
50549;SDS011;36505;52.512;13.460;2023-07-20T13:57:34;0.77;;;0.70;;
50549;SDS011;36505;52.512;13.460;2023-07-20T13:59:59;1.73;;;0.80;;
50549;SDS011;36505;52.512;13.460;2023-07-20T14:02:25;9.80;;;0.85;;
50549;SDS011;36505;52.512;13.460;2023-07-20T14:04:51;3.15;;;0.70;;
50549;SDS011;36505;52.512;13.460;2023-07-20T14:07:19;2.08;;;1.30;;
50549;SDS011;36505;52.512;13.460;2023-07-20T14:09:45;2.22;;;1.25;;
50549;SDS011;36505;52.512;13.460;2023-07-20T14:12:10;3.17;;;0.98;;
50549;SDS011;36505;52.512;13.460;2023-07-20T14:14:39;2.30;;;1.35;;
50549;SDS011;36505;52.512;13.460;2023-07-20T14:17:05;6.20;;;0.90;;
50549;SDS011;36505;52.512;13.460;2023-07-20T14:19:31;1.90;;;0.77;;
50549;SDS011;36505;52.512;13.460;2023-07-20T14:21:56;0.82;;;0.57;;
50549;SDS011;36505;52.512;13.460;2023-07-20T14:24:24;1.77;;;0.80;;
50549;SDS011;36505;52.512;13.460;2023-07-20T14:26:49;2.78;;;0.60;;
50549;SDS011;36505;52.512;13.460;2023-07-20T14:29:14;2.75;;;0.60;;
50549;SDS011;36505;52.512;13.460;2023-07-20T14:31:40;1.50;;;0.60;;
50549;SDS011;36505;52.512;13.460;2023-07-20T14:34:05;2.40;;;0.90;;
50549;SDS011;36505;52.512;13.460;2023-07-20T14:36:30;1.42;;;0.60;;
50549;SDS011;36505;52.512;13.460;2023-07-20T14:38:56;1.73;;;0.85;;
50549;SDS011;36505;52.512;13.460;2023-07-20T14:41:21;2.22;;;0.85;;
50549;SDS011;36505;52.512;13.460;2023-07-20T14:43:47;2.00;;;0.68;;
50549;SDS011;36505;52.512;13.460;2023-07-20T14:46:13;3.33;;;0.93;;
50549;SDS011;36505;52.512;13.460;2023-07-20T14:48:38;1.08;;;0.82;;